createdAt,value
2023-03-15T00:00:18.060Z,78.15
2023-03-15T00:02:46.477Z,78.26
2023-03-15T00:05:14.971Z,76.61
2023-03-15T00:07:43.308Z,77.25
2023-03-15T00:10:13.525Z,76.16
2023-03-15T00:12:43.161Z,77.04
2023-03-15T00:15:15.279Z,77.88
2023-03-15T00:17:45.026Z,78.45
2023-03-15T00:20:15.778Z,78.75
2023-03-15T00:22:45.286Z,78.61
2023-03-15T00:25:15.216Z,78.69
2023-03-15T00:27:43.678Z,78.32
2023-03-15T00:30:13.150Z,77.94
2023-03-15T00:32:42.696Z,77.66
2023-03-15T00:35:13.104Z,76.14
2023-03-15T00:37:41.670Z,74.65
2023-03-15T00:40:12.278Z,73.59
2023-03-15T00:42:42.265Z,74.28
2023-03-15T00:45:11.394Z,74.75
2023-03-15T00:47:39.847Z,74.61
2023-03-15T00:50:08.882Z,73.86
2023-03-15T00:52:38.271Z,73.18
2023-03-15T00:55:07.744Z,72.92
2023-03-15T00:57:36.332Z,72.87
2023-03-15T01:00:08.708Z,73.35
2023-03-15T01:02:37.928Z,73.35
2023-03-15T01:05:07.887Z,73.56
2023-03-15T01:07:37.085Z,73.60
2023-03-15T01:10:09.019Z,73.80
2023-03-15T01:12:37.389Z,73.74
2023-03-15T01:15:11.945Z,74.09
2023-03-15T01:17:40.610Z,72.80
2023-03-15T01:20:11.283Z,74.06
2023-03-15T01:22:39.636Z,73.51
2023-03-15T01:25:10.485Z,72.84
2023-03-15T01:27:39.238Z,73.36
2023-03-15T01:30:11.090Z,74.54
2023-03-15T01:32:39.624Z,75.50
2023-03-15T01:35:09.510Z,76.78
2023-03-15T01:37:37.913Z,77.63
2023-03-15T01:40:09.737Z,77.42
2023-03-15T01:42:54.376Z,77.79
2023-03-15T01:46:09.191Z,78.74
2023-03-15T01:48:45.962Z,79.24
2023-03-15T01:51:26.021Z,78.46
2023-03-15T01:54:00.114Z,77.30
2023-03-15T01:56:30.380Z,78.00
2023-03-15T01:59:00.795Z,78.71
2023-03-15T02:01:31.651Z,78.58
2023-03-15T02:04:06.569Z,79.40
2023-03-15T02:06:39.186Z,78.86
2023-03-15T02:09:15.170Z,79.88
2023-03-15T02:11:44.306Z,79.97
2023-03-15T02:14:14.593Z,80.05
2023-03-15T02:16:46.470Z,80.79
2023-03-15T02:19:35.108Z,80.51
2023-03-15T02:22:21.781Z,80.17
2023-03-15T02:24:57.966Z,79.92
2023-03-15T02:27:32.328Z,80.80
2023-03-15T02:30:03.399Z,80.06
2023-03-15T02:32:32.218Z,79.94
2023-03-15T02:35:00.897Z,80.73
2023-03-15T02:37:30.334Z,80.83
2023-03-15T02:39:58.743Z,81.24
2023-03-15T02:42:29.267Z,81.74
2023-03-15T02:44:59.527Z,81.99
2023-03-15T02:47:33.738Z,82.87
2023-03-15T02:50:02.458Z,82.69
2023-03-15T02:52:31.070Z,83.22
2023-03-15T02:54:59.450Z,83.60
2023-03-15T02:57:30.347Z,83.43
2023-03-15T03:00:00.641Z,82.36
2023-03-15T03:02:29.600Z,82.01
2023-03-15T03:04:58.084Z,81.69
2023-03-15T03:07:26.499Z,81.23
2023-03-15T03:10:00.926Z,80.75
2023-03-15T03:12:33.658Z,80.70
2023-03-15T03:15:02.842Z,81.15
2023-03-15T03:17:37.344Z,81.19
2023-03-15T03:20:09.632Z,81.37
2023-03-15T03:22:44.972Z,81.31
2023-03-15T03:25:14.163Z,82.36
2023-03-15T03:27:44.072Z,82.98
2023-03-15T03:30:15.751Z,82.76
2023-03-15T03:32:49.868Z,83.12
2023-03-15T03:35:18.635Z,83.54
2023-03-15T03:37:47.074Z,83.97
2023-03-15T03:40:22.927Z,84.32
2023-03-15T03:42:52.770Z,84.82
2023-03-15T03:45:21.942Z,84.80
2023-03-15T03:47:54.003Z,85.92
2023-03-15T03:50:22.693Z,86.35
2023-03-15T03:52:51.407Z,85.63
2023-03-15T03:55:25.563Z,85.80
2023-03-15T03:57:56.619Z,85.55
2023-03-15T04:00:44.267Z,84.59
2023-03-15T04:03:13.856Z,84.50
2023-03-15T04:05:47.397Z,84.29
2023-03-15T04:08:19.823Z,84.58
2023-03-15T04:10:53.207Z,84.23
2023-03-15T04:13:25.215Z,84.03
2023-03-15T04:15:57.623Z,84.07
2023-03-15T04:18:29.757Z,84.04
2023-03-15T04:20:58.318Z,84.02
2023-03-15T04:23:27.215Z,84.42
2023-03-15T04:26:08.281Z,83.93
2023-03-15T04:28:54.900Z,83.64
2023-03-15T04:31:43.362Z,84.12
2023-03-15T04:34:31.766Z,84.78
2023-03-15T04:37:07.429Z,84.58
2023-03-15T04:39:39.228Z,84.65
2023-03-15T04:42:26.652Z,84.64
2023-03-15T04:45:20.720Z,84.60
2023-03-15T04:48:02.357Z,84.72
2023-03-15T04:50:42.832Z,84.68
2023-03-15T04:53:22.786Z,84.45
2023-03-15T04:56:09.965Z,84.50
2023-03-15T04:58:56.030Z,84.96
2023-03-15T05:01:42.312Z,85.39
2023-03-15T05:04:22.941Z,85.08
2023-03-15T05:07:20.774Z,84.51
2023-03-15T05:10:00.657Z,84.24
2023-03-15T05:12:50.651Z,84.37
2023-03-15T05:15:51.449Z,84.28
2023-03-15T05:18:47.297Z,84.77
2023-03-15T05:21:34.426Z,85.33
2023-03-15T05:24:32.672Z,84.89
2023-03-15T05:27:16.099Z,85.82
2023-03-15T05:29:54.552Z,86.07
2023-03-15T05:32:26.903Z,85.81
2023-03-15T05:35:16.734Z,86.37
2023-03-15T05:38:05.984Z,86.09
2023-03-15T05:40:51.985Z,85.92
2023-03-15T05:43:46.555Z,86.28
2023-03-15T05:46:39.912Z,87.04
2023-03-15T05:49:28.023Z,88.27
2023-03-15T05:52:26.394Z,89.76
2023-03-15T05:55:18.220Z,91.36
2023-03-15T05:57:55.878Z,91.90
2023-03-15T06:00:39.427Z,93.31
2023-03-15T06:03:17.412Z,94.87
2023-03-15T06:05:55.277Z,95.62
2023-03-15T06:08:34.549Z,96.92
2023-03-15T06:11:03.018Z,97.59
2023-03-15T06:13:32.502Z,97.59
2023-03-15T06:16:03.378Z,98.43
2023-03-15T06:18:33.388Z,98.68
2023-03-15T06:21:01.799Z,98.45
2023-03-15T06:23:30.166Z,98.93
2023-03-15T06:26:00.043Z,98.84
2023-03-15T06:28:31.004Z,99.00
2023-03-15T06:31:09.091Z,99.41
2023-03-15T06:33:44.867Z,99.14
2023-03-15T06:36:14.284Z,99.11
2023-03-15T06:38:43.063Z,98.43
2023-03-15T06:41:15.333Z,98.33
2023-03-15T06:43:44.112Z,98.19
2023-03-15T06:46:13.357Z,97.82
2023-03-15T06:48:42.349Z,98.51
2023-03-15T06:51:12.638Z,98.62
2023-03-15T06:53:41.081Z,98.67
2023-03-15T06:56:09.623Z,98.64
2023-03-15T06:58:39.394Z,98.72
2023-03-15T07:01:07.818Z,99.35
2023-03-15T07:03:36.213Z,99.20
2023-03-15T07:06:04.982Z,99.26
2023-03-15T07:08:33.739Z,100.00
2023-03-15T07:11:02.106Z,99.68
2023-03-15T07:13:30.567Z,99.78
2023-03-15T07:16:00.332Z,99.87
2023-03-15T07:18:28.890Z,100.00
2023-03-15T07:20:58.377Z,100.00
2023-03-15T07:23:27.281Z,100.00
2023-03-15T07:25:56.366Z,100.00
2023-03-15T07:28:26.133Z,100.00
2023-03-15T07:30:56.417Z,100.00
2023-03-15T07:33:27.610Z,100.00
2023-03-15T07:35:56.798Z,100.00
2023-03-15T07:38:28.877Z,100.00
2023-03-15T07:40:57.816Z,100.00
2023-03-15T07:43:26.196Z,100.00
2023-03-15T07:46:07.760Z,100.00
2023-03-15T07:48:37.552Z,100.00
2023-03-15T07:51:06.949Z,100.00
2023-03-15T07:53:35.377Z,100.00
2023-03-15T07:56:04.152Z,100.00
2023-03-15T07:58:32.686Z,100.00
2023-03-15T08:01:01.277Z,98.22
2023-03-15T08:03:29.660Z,99.22
2023-03-15T08:06:02.217Z,97.52
2023-03-15T08:08:30.733Z,96.62
2023-03-15T08:10:59.472Z,95.38
2023-03-15T08:13:27.852Z,96.33
2023-03-15T08:15:56.264Z,96.44
2023-03-15T08:18:24.759Z,96.89
2023-03-15T08:20:53.125Z,96.29
2023-03-15T08:23:23.076Z,96.49
2023-03-15T08:25:51.459Z,95.70
2023-03-15T08:28:19.808Z,98.06
2023-03-15T08:30:48.168Z,96.86
2023-03-15T08:33:16.947Z,96.58
2023-03-15T08:35:45.343Z,96.07
2023-03-15T08:38:14.564Z,94.07
2023-03-15T08:40:44.559Z,93.29
2023-03-15T08:43:12.909Z,94.33
2023-03-15T08:45:59.750Z,93.41
2023-03-15T08:48:28.903Z,92.39
2023-03-15T08:50:58.355Z,92.64
2023-03-15T08:53:26.688Z,92.77
2023-03-15T08:55:56.434Z,92.19
2023-03-15T08:58:24.983Z,92.48
2023-03-15T09:00:54.005Z,93.07
2023-03-15T09:03:23.062Z,91.81
2023-03-15T09:05:51.413Z,92.40
2023-03-15T09:08:21.532Z,93.64
2023-03-15T09:10:50.253Z,92.64
2023-03-15T09:13:20.001Z,90.88
2023-03-15T09:15:50.995Z,87.40
2023-03-15T09:18:19.727Z,81.41
2023-03-15T09:20:48.521Z,82.52
2023-03-15T09:23:17.111Z,82.01
2023-03-15T09:25:45.500Z,80.75
2023-03-15T09:28:13.895Z,79.76
2023-03-15T09:30:44.411Z,76.20
2023-03-15T09:33:14.908Z,73.26
2023-03-15T09:35:43.852Z,71.81
2023-03-15T09:38:12.322Z,69.57
2023-03-15T09:40:45.060Z,69.92
2023-03-15T09:43:43.157Z,72.11
2023-03-15T09:46:28.078Z,72.74
2023-03-15T09:49:02.784Z,72.45
2023-03-15T09:51:39.916Z,76.01
2023-03-15T09:54:14.592Z,76.20
2023-03-15T09:56:51.635Z,75.22
2023-03-15T09:59:22.944Z,75.72
2023-03-15T10:01:57.224Z,77.55
2023-03-15T10:04:31.046Z,77.73
2023-03-15T10:07:02.125Z,78.35
2023-03-15T10:09:34.552Z,78.75
2023-03-15T10:12:11.272Z,79.16
2023-03-15T10:15:05.914Z,80.51
2023-03-15T10:17:43.980Z,81.10
2023-03-15T10:20:16.064Z,81.47
2023-03-15T10:22:56.455Z,81.35
2023-03-15T10:25:28.137Z,82.27
2023-03-15T10:28:01.168Z,81.89
2023-03-15T10:30:33.117Z,79.91
2023-03-15T10:33:08.019Z,77.96
2023-03-15T10:35:36.649Z,78.53
2023-03-15T10:38:13.553Z,77.53
2023-03-15T10:40:45.437Z,77.65
2023-03-15T10:43:18.782Z,77.66
2023-03-15T10:46:00.195Z,77.65
2023-03-15T10:48:31.563Z,74.44
2023-03-15T10:51:06.832Z,69.83
2023-03-15T10:53:35.835Z,66.37
2023-03-15T10:56:08.719Z,63.23
2023-03-15T10:59:05.315Z,62.05
2023-03-15T11:01:37.640Z,59.55
2023-03-15T11:04:17.675Z,58.48
2023-03-15T11:06:49.771Z,58.29
2023-03-15T11:09:22.258Z,56.25
2023-03-15T11:12:01.651Z,57.46
2023-03-15T11:14:36.153Z,56.64
2023-03-15T11:17:09.921Z,55.91
2023-03-15T11:19:44.003Z,55.48
2023-03-15T11:22:15.288Z,55.84
2023-03-15T11:24:43.852Z,55.44
2023-03-15T11:27:16.018Z,58.14
2023-03-15T11:29:49.198Z,57.51
2023-03-15T11:32:21.843Z,57.27
2023-03-15T11:34:59.152Z,56.59
2023-03-15T11:37:34.787Z,53.96
2023-03-15T11:40:13.192Z,52.41
2023-03-15T11:42:50.052Z,52.93
2023-03-15T11:45:24.281Z,53.16
2023-03-15T11:47:57.797Z,53.52
2023-03-15T11:50:27.735Z,53.76
2023-03-15T11:52:56.218Z,53.77
2023-03-15T11:55:28.140Z,54.05
2023-03-15T11:57:58.020Z,54.68
2023-03-15T12:00:53.171Z,55.49
2023-03-15T12:03:36.755Z,55.29
2023-03-15T12:06:14.057Z,55.57
2023-03-15T12:08:50.731Z,55.67
2023-03-15T12:11:41.461Z,54.17
2023-03-15T12:14:30.007Z,54.59
2023-03-15T12:17:47.911Z,55.66
2023-03-15T12:20:38.469Z,56.96
2023-03-15T12:23:23.955Z,55.92
2023-03-15T12:25:57.516Z,59.75
2023-03-15T12:28:29.794Z,54.12
2023-03-15T12:31:01.869Z,54.36
2023-03-15T12:33:33.992Z,54.24
2023-03-15T12:36:06.079Z,54.27
2023-03-15T12:38:41.872Z,53.75
2023-03-15T12:41:35.149Z,53.51
2023-03-15T12:44:39.527Z,52.33
2023-03-15T12:47:09.487Z,52.53
2023-03-15T12:49:43.833Z,51.03
2023-03-15T12:52:39.466Z,51.73
2023-03-15T12:55:16.795Z,49.08
2023-03-15T12:57:50.898Z,50.17
2023-03-15T13:00:25.074Z,50.43
2023-03-15T13:03:07.106Z,51.82
2023-03-15T13:06:01.340Z,51.99
2023-03-15T13:08:38.202Z,52.38
2023-03-15T13:11:21.899Z,52.23
2023-03-15T13:14:25.036Z,51.52
2023-03-15T13:17:06.820Z,51.45
2023-03-15T13:19:42.839Z,50.59
2023-03-15T13:22:22.902Z,50.86
2023-03-15T13:25:01.120Z,50.23
2023-03-15T13:27:46.591Z,49.52
2023-03-15T13:30:44.232Z,48.87
2023-03-15T13:33:22.386Z,49.31
2023-03-15T13:35:57.977Z,49.44
2023-03-15T13:38:33.190Z,49.12
2023-03-15T13:41:04.679Z,48.91
2023-03-15T13:43:37.992Z,49.49
2023-03-15T13:46:07.450Z,49.36
2023-03-15T13:48:38.822Z,48.18
2023-03-15T13:51:13.782Z,48.88
2023-03-15T13:53:49.809Z,48.76
2023-03-15T13:56:21.838Z,47.41
2023-03-15T13:58:53.076Z,46.82
2023-03-15T14:01:24.316Z,47.12
2023-03-15T14:03:58.111Z,46.68
2023-03-15T14:06:29.004Z,46.50
2023-03-15T14:09:10.205Z,46.10
2023-03-15T14:11:40.741Z,46.07
2023-03-15T14:14:29.060Z,46.59
2023-03-15T14:17:05.828Z,45.27
2023-03-15T14:19:36.968Z,46.74
2023-03-15T14:22:16.535Z,45.10
2023-03-15T14:24:48.531Z,44.96
2023-03-15T14:27:20.330Z,45.41
2023-03-15T14:29:53.535Z,45.59
2023-03-15T14:32:29.568Z,45.83
2023-03-15T14:35:04.288Z,46.33
2023-03-15T14:37:39.183Z,45.55
2023-03-15T14:40:20.998Z,46.19
2023-03-15T14:42:50.955Z,45.44
2023-03-15T14:45:22.330Z,44.58
2023-03-15T14:47:57.084Z,44.17
2023-03-15T14:50:29.547Z,43.72
2023-03-15T14:52:59.702Z,43.01
2023-03-15T14:55:34.694Z,43.77
2023-03-15T14:58:03.481Z,45.16
2023-03-15T15:00:34.674Z,45.93
2023-03-15T15:03:04.042Z,45.66
2023-03-15T15:05:36.142Z,45.55
2023-03-15T15:08:10.112Z,44.73
2023-03-15T15:10:38.611Z,44.54
2023-03-15T15:13:07.688Z,45.02
2023-03-15T15:15:53.849Z,44.51
2023-03-15T15:18:24.903Z,44.74
2023-03-15T15:20:56.122Z,44.47
2023-03-15T15:23:27.981Z,44.18
2023-03-15T15:26:00.501Z,45.45
2023-03-15T15:28:35.896Z,45.10
2023-03-15T15:31:07.558Z,45.17
2023-03-15T15:33:36.567Z,45.30
2023-03-15T15:36:08.418Z,44.31
2023-03-15T15:38:39.079Z,46.00
2023-03-15T15:41:14.305Z,45.79
2023-03-15T15:43:43.416Z,45.79
2023-03-15T15:46:14.827Z,45.76
2023-03-15T15:48:43.697Z,45.10
2023-03-15T15:51:22.287Z,45.78
2023-03-15T15:53:50.847Z,46.33
2023-03-15T15:56:19.571Z,46.84
2023-03-15T15:58:48.484Z,46.97
2023-03-15T16:01:18.486Z,46.21
2023-03-15T16:03:46.901Z,46.98
2023-03-15T16:06:20.710Z,43.24
2023-03-15T16:08:52.144Z,44.30
2023-03-15T16:11:20.924Z,44.03
2023-03-15T16:13:53.867Z,43.93
2023-03-15T16:16:24.191Z,43.79
2023-03-15T16:18:52.593Z,44.47
2023-03-15T16:21:33.535Z,44.62
2023-03-15T16:24:08.383Z,45.15
2023-03-15T16:26:39.211Z,45.78
2023-03-15T16:29:17.706Z,46.24
2023-03-15T16:31:48.263Z,46.52
2023-03-15T16:34:19.040Z,46.16
2023-03-15T16:36:49.754Z,46.82
2023-03-15T16:39:18.502Z,46.50
2023-03-15T16:41:46.903Z,46.44
2023-03-15T16:44:19.160Z,47.39
2023-03-15T16:46:50.047Z,46.95
2023-03-15T16:49:18.488Z,47.68
2023-03-15T16:51:51.216Z,48.05
2023-03-15T16:54:38.288Z,46.92
2023-03-15T16:57:15.803Z,46.63
2023-03-15T16:59:44.181Z,47.20
2023-03-15T17:02:24.100Z,47.09
2023-03-15T17:04:53.634Z,47.07
2023-03-15T17:07:27.716Z,47.41
2023-03-15T17:09:56.618Z,47.04
2023-03-15T17:12:28.632Z,46.87
2023-03-15T17:14:59.270Z,47.45
2023-03-15T17:17:32.488Z,46.96
2023-03-15T17:20:01.972Z,47.16
2023-03-15T17:22:30.746Z,48.00
2023-03-15T17:25:00.100Z,48.35
2023-03-15T17:27:34.579Z,49.59
2023-03-15T17:30:03.151Z,48.41
2023-03-15T17:32:32.954Z,48.31
2023-03-15T17:35:01.397Z,48.82
2023-03-15T17:37:33.852Z,49.61
2023-03-15T17:40:12.411Z,49.42
2023-03-15T17:42:41.096Z,49.86
2023-03-15T17:45:17.605Z,50.99
2023-03-15T17:47:47.418Z,50.46
2023-03-15T17:50:16.432Z,50.52
2023-03-15T17:52:45.760Z,50.64
2023-03-15T17:55:19.394Z,50.55
2023-03-15T17:57:54.780Z,51.12
2023-03-15T18:00:25.440Z,51.55
2023-03-15T18:02:56.569Z,51.88
2023-03-15T18:05:28.189Z,52.62
2023-03-15T18:07:59.162Z,52.14
2023-03-15T18:10:35.184Z,52.57
2023-03-15T18:13:04.499Z,52.82
2023-03-15T18:15:34.002Z,54.05
2023-03-15T18:18:06.210Z,53.59
2023-03-15T18:20:34.827Z,53.79
2023-03-15T18:23:04.075Z,54.11
2023-03-15T18:25:35.202Z,54.38
2023-03-15T18:28:04.176Z,55.06
2023-03-15T18:30:33.736Z,55.55
2023-03-15T18:33:05.708Z,55.91
2023-03-15T18:35:37.008Z,55.21
2023-03-15T18:38:06.518Z,55.55
2023-03-15T18:40:35.844Z,55.26
2023-03-15T18:43:05.547Z,55.92
2023-03-15T18:45:36.605Z,56.30
2023-03-15T18:48:07.404Z,56.47
2023-03-15T18:50:36.520Z,57.21
2023-03-15T18:53:06.550Z,57.30
2023-03-15T18:55:35.780Z,58.00
2023-03-15T18:58:05.249Z,57.36
2023-03-15T19:00:36.182Z,58.18
2023-03-15T19:03:07.608Z,57.02
2023-03-15T19:05:38.663Z,57.85
2023-03-15T19:08:07.330Z,57.77
2023-03-15T19:10:35.763Z,57.69
2023-03-15T19:13:04.886Z,57.39
2023-03-15T19:15:33.366Z,56.48
2023-03-15T19:18:02.081Z,56.46
2023-03-15T19:20:32.017Z,56.86
2023-03-15T19:23:00.531Z,57.30
2023-03-15T19:25:28.873Z,57.43
2023-03-15T19:27:58.048Z,57.56
2023-03-15T19:30:27.585Z,58.21
2023-03-15T19:32:56.307Z,58.60
2023-03-15T19:35:24.901Z,59.07
2023-03-15T19:37:56.298Z,59.41
2023-03-15T19:40:25.207Z,59.95
2023-03-15T19:42:54.220Z,60.29
2023-03-15T19:45:22.776Z,60.14
2023-03-15T19:47:51.401Z,60.42
2023-03-15T19:50:20.294Z,61.29
2023-03-15T19:52:48.870Z,62.69
2023-03-15T19:55:21.394Z,64.38
2023-03-15T19:57:49.878Z,65.52
2023-03-15T20:00:20.852Z,66.46
2023-03-15T20:02:49.918Z,67.02
2023-03-15T20:05:20.894Z,67.06
2023-03-15T20:07:51.194Z,67.76
2023-03-15T20:10:21.830Z,67.90
2023-03-15T20:12:50.461Z,67.80
2023-03-15T20:15:21.017Z,67.79
2023-03-15T20:17:49.567Z,67.70
2023-03-15T20:20:19.426Z,68.64
2023-03-15T20:22:48.089Z,68.50
2023-03-15T20:25:18.429Z,68.99
2023-03-15T20:27:48.609Z,68.57
2023-03-15T20:30:18.954Z,69.18
2023-03-15T20:32:47.475Z,69.57
2023-03-15T20:35:16.064Z,69.90
2023-03-15T20:37:44.495Z,70.11
2023-03-15T20:40:15.317Z,70.47
2023-03-15T20:42:44.301Z,70.92
2023-03-15T20:45:15.001Z,71.30
2023-03-15T20:47:43.609Z,71.37
2023-03-15T20:50:13.682Z,71.99
2023-03-15T20:52:42.739Z,71.75
2023-03-15T20:55:13.693Z,71.56
2023-03-15T20:57:43.068Z,72.27
2023-03-15T21:00:18.210Z,72.63
2023-03-15T21:02:47.726Z,72.53
2023-03-15T21:05:17.137Z,73.02
2023-03-15T21:07:46.637Z,73.04
2023-03-15T21:10:15.205Z,73.93
2023-03-15T21:12:44.972Z,73.52
2023-03-15T21:15:17.606Z,73.45
2023-03-15T21:17:48.662Z,74.23
2023-03-15T21:20:17.617Z,74.86
2023-03-15T21:22:46.093Z,75.58
2023-03-15T21:25:14.526Z,75.29
2023-03-15T21:27:43.023Z,75.84
2023-03-15T21:30:15.070Z,75.79
2023-03-15T21:32:44.758Z,75.85
2023-03-15T21:35:13.443Z,76.42
2023-03-15T21:37:41.837Z,77.13
2023-03-15T21:40:12.467Z,77.75
2023-03-15T21:42:40.939Z,76.25
2023-03-15T21:45:12.085Z,75.84
2023-03-15T21:47:41.927Z,75.16
2023-03-15T21:50:12.709Z,75.93
2023-03-15T21:52:41.333Z,76.52
2023-03-15T21:55:15.368Z,77.02
2023-03-15T21:57:44.859Z,77.29
2023-03-15T22:00:16.138Z,78.87
2023-03-15T22:02:46.613Z,79.62
2023-03-15T22:05:15.170Z,80.45
2023-03-15T22:07:44.164Z,80.00
2023-03-15T22:10:14.405Z,80.07
2023-03-15T22:12:43.460Z,79.83
2023-03-15T22:15:13.392Z,80.07
2023-03-15T22:17:42.169Z,81.58
2023-03-15T22:20:16.982Z,79.24
2023-03-15T22:22:45.698Z,79.88
2023-03-15T22:25:15.085Z,81.17
2023-03-15T22:27:43.541Z,81.76
2023-03-15T22:30:14.612Z,82.52
2023-03-15T22:32:44.412Z,83.03
2023-03-15T22:35:15.944Z,84.51
2023-03-15T22:37:44.498Z,85.31
2023-03-15T22:40:14.666Z,85.26
2023-03-15T22:42:44.085Z,86.27
2023-03-15T22:45:13.603Z,86.82
2023-03-15T22:47:42.121Z,87.60
2023-03-15T22:50:13.589Z,87.80
2023-03-15T22:52:42.145Z,87.37
2023-03-15T22:55:11.946Z,87.42
2023-03-15T22:57:41.074Z,86.72
2023-03-15T23:00:14.026Z,86.18
2023-03-15T23:02:42.838Z,86.65
2023-03-15T23:05:14.156Z,86.87
2023-03-15T23:07:42.864Z,90.42
2023-03-15T23:10:12.623Z,91.40
2023-03-15T23:12:41.337Z,91.93
2023-03-15T23:15:12.097Z,90.22
2023-03-15T23:17:45.820Z,88.00
2023-03-15T23:20:18.559Z,85.72
2023-03-15T23:22:48.112Z,85.86
2023-03-15T23:25:20.676Z,84.66
2023-03-15T23:27:49.733Z,84.24
2023-03-15T23:30:18.732Z,85.89
2023-03-15T23:32:47.421Z,87.53
2023-03-15T23:35:17.172Z,88.04
2023-03-15T23:37:45.600Z,89.72
2023-03-15T23:40:15.556Z,91.45
2023-03-15T23:42:45.064Z,92.04
2023-03-15T23:45:16.295Z,92.62
2023-03-15T23:47:45.514Z,92.70
2023-03-15T23:50:14.153Z,92.21
2023-03-15T23:52:43.919Z,92.39
2023-03-15T23:55:12.483Z,92.74
2023-03-15T23:57:41.482Z,92.75
